Aeroporto :
LOGIN :

Iscrizione | Disclaimer

   EN    FR    IT 

 










Sommario :    VFR   VFR Marginale   IFR   IFR Intensivo   IFR Molto Intensivo
Visibilità : 
Base nubi : 
>= 8 km
>= 3000ft
5 / 8 km
1000 / 3000 ft
1500m / 5 km
500 / 1000 ft
800 / 1500m
200 / 500 ft
< 800m
< 200 ft
Simboli :   Temporali  Nebbia  Neve Forte  Precipitazioni Forti  Vento > 20 kt
SIGMETs :   Varie  Temporali  Ghiacco  Turbolenza  Onda orograficha  Ceneri Vulcaniche






- Altitudine del aeroporto : 3006 ft
- Codice IATA : LEN


LELN - Leon

ULTIMO METAR :
  • 231830Z 11003KT 080V140 9999 FEW053 SCT059 15/05 Q1018

METARs OBSOLETI :
  • 231800Z 14004KT 9999 FEW054 16/04 Q1018
  • 231730Z 15005KT 9999 FEW054 16/05 Q1018
  • 231700Z 11006KT 9999 SCT054 16/04 Q1018
  • 231630Z 11005KT 070V160 9999 SCT054 17/03 Q1018
  • 231600Z 15006KT 110V240 9999 FEW052 17/04 Q1018
  • 231530Z 14005KT 080V170 9999 FEW052 16/04 Q1018
  • 231500Z 14006KT 100V190 9999 FEW050 16/05 Q1018
  • 231430Z 27003KT 9999 FEW050 16/03 Q1019
  • 231400Z 18003KT 100V260 9999 FEW049 16/04 Q1019

TAF TAF LELN
Valido dal 23 a 15 ore il 24 a 15 ore UTC


231400Z 2315/2415 03009KT CAVOK TX19/2414Z TN04/2405Z
BECMG 2321/2323 VRB03KT
PROB40
TEMPO 2401/2407 3000 BR



MetMap, La meteo Aeronautica in un colpo d'occhio ! - Copyright ORBIFLY Dicembre 2007 - Disclaimer

ORBIFLY MET'MAP TEAM :

Programmazione e sviluppo : Alexandra Zaïnal
Concezione : Baudouin d'Aumeries
Supporto tecnico e logistico : Manuel Goepfert
Aiuto : Marc-Olivier Méhu
Aiuto per la traduzione : Arnaldo La Scala




FONTI E CREDITI :

   NOAA